sensor_id;sensor_type;location;lat;lon;timestamp;P1;durP1;ratioP1;P2;durP2;ratioP2
41829;SDS011;38614;43.472;23.936;2023-07-30T00:00:44;5.13;;;1.00;;
41829;SDS011;38614;43.472;23.936;2023-07-30T00:03:32;1.55;;;0.82;;
41829;SDS011;38614;43.472;23.936;2023-07-30T00:06:20;3.63;;;0.52;;
41829;SDS011;38614;43.472;23.936;2023-07-30T00:09:07;3.00;;;0.85;;
41829;SDS011;38614;43.472;23.936;2023-07-30T00:11:55;1.35;;;0.52;;
41829;SDS011;38614;43.472;23.936;2023-07-30T00:14:43;2.33;;;0.73;;
41829;SDS011;38614;43.472;23.936;2023-07-30T00:17:31;1.40;;;0.80;;
41829;SDS011;38614;43.472;23.936;2023-07-30T00:20:19;1.90;;;0.35;;
41829;SDS011;38614;43.472;23.936;2023-07-30T00:23:07;2.35;;;0.85;;
41829;SDS011;38614;43.472;23.936;2023-07-30T00:25:55;1.58;;;0.85;;
41829;SDS011;38614;43.472;23.936;2023-07-30T00:28:42;2.67;;;0.63;;
41829;SDS011;38614;43.472;23.936;2023-07-30T00:31:30;2.05;;;0.40;;
41829;SDS011;38614;43.472;23.936;2023-07-30T00:34:18;1.65;;;0.95;;
41829;SDS011;38614;43.472;23.936;2023-07-30T00:37:06;7.47;;;1.35;;
41829;SDS011;38614;43.472;23.936;2023-07-30T00:39:54;3.58;;;1.25;;
41829;SDS011;38614;43.472;23.936;2023-07-30T00:42:41;1.33;;;0.45;;
41829;SDS011;38614;43.472;23.936;2023-07-30T00:45:29;1.65;;;0.50;;
41829;SDS011;38614;43.472;23.936;2023-07-30T00:48:17;0.80;;;0.35;;
41829;SDS011;38614;43.472;23.936;2023-07-30T00:51:06;2.58;;;0.63;;
41829;SDS011;38614;43.472;23.936;2023-07-30T00:53:54;3.70;;;0.68;;
41829;SDS011;38614;43.472;23.936;2023-07-30T00:56:49;3.00;;;0.95;;
41829;SDS011;38614;43.472;23.936;2023-07-30T00:59:42;3.75;;;0.80;;
41829;SDS011;38614;43.472;23.936;2023-07-30T01:02:31;2.67;;;1.25;;
41829;SDS011;38614;43.472;23.936;2023-07-30T01:05:19;4.40;;;1.17;;
41829;SDS011;38614;43.472;23.936;2023-07-30T01:08:08;1.80;;;0.70;;
41829;SDS011;38614;43.472;23.936;2023-07-30T01:10:57;1.95;;;0.73;;
41829;SDS011;38614;43.472;23.936;2023-07-30T01:13:45;1.05;;;0.50;;
41829;SDS011;38614;43.472;23.936;2023-07-30T01:16:34;7.95;;;0.57;;
41829;SDS011;38614;43.472;23.936;2023-07-30T01:19:23;0.35;;;0.30;;
41829;SDS011;38614;43.472;23.936;2023-07-30T01:22:10;2.80;;;0.88;;
41829;SDS011;38614;43.472;23.936;2023-07-30T01:24:58;1.92;;;0.52;;
41829;SDS011;38614;43.472;23.936;2023-07-30T01:27:48;1.30;;;0.47;;
41829;SDS011;38614;43.472;23.936;2023-07-30T01:30:43;3.15;;;0.45;;
41829;SDS011;38614;43.472;23.936;2023-07-30T01:33:33;1.10;;;0.77;;
41829;SDS011;38614;43.472;23.936;2023-07-30T01:36:22;5.55;;;0.70;;
41829;SDS011;38614;43.472;23.936;2023-07-30T01:39:10;0.40;;;0.35;;
41829;SDS011;38614;43.472;23.936;2023-07-30T01:42:01;1.85;;;0.63;;
41829;SDS011;38614;43.472;23.936;2023-07-30T01:44:49;1.33;;;0.30;;
41829;SDS011;38614;43.472;23.936;2023-07-30T01:47:42;4.88;;;1.38;;
41829;SDS011;38614;43.472;23.936;2023-07-30T01:50:30;1.80;;;0.60;;
41829;SDS011;38614;43.472;23.936;2023-07-30T01:53:18;1.77;;;0.65;;
41829;SDS011;38614;43.472;23.936;2023-07-30T01:56:11;1.38;;;1.00;;
41829;SDS011;38614;43.472;23.936;2023-07-30T01:58:59;3.03;;;1.25;;
41829;SDS011;38614;43.472;23.936;2023-07-30T02:01:47;3.97;;;0.60;;
41829;SDS011;38614;43.472;23.936;2023-07-30T02:04:34;2.53;;;0.63;;
41829;SDS011;38614;43.472;23.936;2023-07-30T02:07:22;0.70;;;0.40;;
41829;SDS011;38614;43.472;23.936;2023-07-30T02:10:11;0.75;;;0.43;;
41829;SDS011;38614;43.472;23.936;2023-07-30T02:12:58;7.50;;;0.30;;
41829;SDS011;38614;43.472;23.936;2023-07-30T02:15:46;12.85;;;1.80;;
41829;SDS011;38614;43.472;23.936;2023-07-30T02:18:34;3.28;;;0.30;;
41829;SDS011;38614;43.472;23.936;2023-07-30T02:21:22;6.18;;;0.50;;
41829;SDS011;38614;43.472;23.936;2023-07-30T02:24:10;3.03;;;0.88;;
41829;SDS011;38614;43.472;23.936;2023-07-30T02:26:59;3.70;;;0.95;;
41829;SDS011;38614;43.472;23.936;2023-07-30T02:29:46;0.60;;;0.40;;
41829;SDS011;38614;43.472;23.936;2023-07-30T02:32:34;0.85;;;0.50;;
41829;SDS011;38614;43.472;23.936;2023-07-30T02:35:22;2.17;;;0.40;;
41829;SDS011;38614;43.472;23.936;2023-07-30T02:38:11;1.00;;;0.40;;
41829;SDS011;38614;43.472;23.936;2023-07-30T02:41:01;1.52;;;0.60;;
41829;SDS011;38614;43.472;23.936;2023-07-30T02:43:49;5.40;;;0.90;;
41829;SDS011;38614;43.472;23.936;2023-07-30T02:46:37;5.72;;;0.82;;
41829;SDS011;38614;43.472;23.936;2023-07-30T02:49:42;8.40;;;1.02;;
41829;SDS011;38614;43.472;23.936;2023-07-30T02:52:30;0.73;;;0.57;;
41829;SDS011;38614;43.472;23.936;2023-07-30T02:55:18;8.40;;;1.08;;
41829;SDS011;38614;43.472;23.936;2023-07-30T02:58:06;1.73;;;0.85;;
41829;SDS011;38614;43.472;23.936;2023-07-30T03:00:54;1.20;;;0.60;;
41829;SDS011;38614;43.472;23.936;2023-07-30T03:03:41;3.33;;;0.88;;
41829;SDS011;38614;43.472;23.936;2023-07-30T03:06:29;0.90;;;0.40;;
41829;SDS011;38614;43.472;23.936;2023-07-30T03:09:17;0.65;;;0.50;;
41829;SDS011;38614;43.472;23.936;2023-07-30T03:12:05;3.33;;;1.30;;
41829;SDS011;38614;43.472;23.936;2023-07-30T03:14:53;3.95;;;0.52;;
41829;SDS011;38614;43.472;23.936;2023-07-30T03:17:41;3.50;;;0.63;;
41829;SDS011;38614;43.472;23.936;2023-07-30T03:20:29;6.22;;;0.60;;
41829;SDS011;38614;43.472;23.936;2023-07-30T03:23:17;4.10;;;0.55;;
41829;SDS011;38614;43.472;23.936;2023-07-30T03:26:05;2.90;;;0.60;;
41829;SDS011;38614;43.472;23.936;2023-07-30T03:28:53;3.00;;;0.88;;
41829;SDS011;38614;43.472;23.936;2023-07-30T03:31:41;6.95;;;1.25;;
41829;SDS011;38614;43.472;23.936;2023-07-30T03:34:29;1.88;;;0.65;;
41829;SDS011;38614;43.472;23.936;2023-07-30T03:37:18;1.48;;;0.68;;
41829;SDS011;38614;43.472;23.936;2023-07-30T03:40:06;1.30;;;0.57;;
41829;SDS011;38614;43.472;23.936;2023-07-30T03:42:54;5.32;;;1.05;;
41829;SDS011;38614;43.472;23.936;2023-07-30T03:45:42;8.80;;;0.98;;
41829;SDS011;38614;43.472;23.936;2023-07-30T03:48:30;8.75;;;1.13;;
41829;SDS011;38614;43.472;23.936;2023-07-30T03:51:21;3.55;;;1.27;;
41829;SDS011;38614;43.472;23.936;2023-07-30T03:54:09;2.22;;;0.77;;
41829;SDS011;38614;43.472;23.936;2023-07-30T03:56:57;6.50;;;0.85;;
41829;SDS011;38614;43.472;23.936;2023-07-30T03:59:46;8.80;;;1.15;;
41829;SDS011;38614;43.472;23.936;2023-07-30T04:02:34;4.65;;;1.38;;
41829;SDS011;38614;43.472;23.936;2023-07-30T04:05:22;6.78;;;2.83;;
41829;SDS011;38614;43.472;23.936;2023-07-30T04:08:10;4.93;;;2.25;;
41829;SDS011;38614;43.472;23.936;2023-07-30T04:10:57;8.68;;;2.80;;
41829;SDS011;38614;43.472;23.936;2023-07-30T04:13:45;1.13;;;1.00;;
41829;SDS011;38614;43.472;23.936;2023-07-30T04:16:33;10.43;;;1.88;;
41829;SDS011;38614;43.472;23.936;2023-07-30T04:19:21;4.80;;;1.63;;
41829;SDS011;38614;43.472;23.936;2023-07-30T04:22:09;6.20;;;2.33;;
41829;SDS011;38614;43.472;23.936;2023-07-30T04:24:57;10.95;;;1.98;;
41829;SDS011;38614;43.472;23.936;2023-07-30T04:27:45;6.00;;;1.77;;
41829;SDS011;38614;43.472;23.936;2023-07-30T04:30:37;9.15;;;2.67;;
41829;SDS011;38614;43.472;23.936;2023-07-30T04:33:28;5.60;;;1.70;;
41829;SDS011;38614;43.472;23.936;2023-07-30T04:36:21;11.27;;;2.80;;
41829;SDS011;38614;43.472;23.936;2023-07-30T04:39:14;7.35;;;1.38;;
41829;SDS011;38614;43.472;23.936;2023-07-30T04:42:03;1.38;;;0.95;;
41829;SDS011;38614;43.472;23.936;2023-07-30T04:44:51;0.90;;;0.73;;
41829;SDS011;38614;43.472;23.936;2023-07-30T04:47:39;2.88;;;1.08;;
41829;SDS011;38614;43.472;23.936;2023-07-30T04:50:26;5.50;;;1.05;;
41829;SDS011;38614;43.472;23.936;2023-07-30T04:53:15;1.88;;;0.95;;
41829;SDS011;38614;43.472;23.936;2023-07-30T04:56:05;7.82;;;0.98;;
41829;SDS011;38614;43.472;23.936;2023-07-30T04:58:56;3.42;;;1.70;;
41829;SDS011;38614;43.472;23.936;2023-07-30T05:01:44;2.88;;;1.40;;
41829;SDS011;38614;43.472;23.936;2023-07-30T05:04:35;5.18;;;1.33;;
41829;SDS011;38614;43.472;23.936;2023-07-30T05:07:25;1.38;;;0.90;;
41829;SDS011;38614;43.472;23.936;2023-07-30T05:10:18;2.30;;;1.05;;
41829;SDS011;38614;43.472;23.936;2023-07-30T05:13:15;1.65;;;1.20;;
41829;SDS011;38614;43.472;23.936;2023-07-30T05:16:03;1.20;;;0.57;;
41829;SDS011;38614;43.472;23.936;2023-07-30T05:18:51;5.88;;;0.82;;
41829;SDS011;38614;43.472;23.936;2023-07-30T05:21:39;1.13;;;1.02;;
41829;SDS011;38614;43.472;23.936;2023-07-30T05:24:26;1.10;;;0.68;;
41829;SDS011;38614;43.472;23.936;2023-07-30T05:27:15;3.85;;;1.30;;
41829;SDS011;38614;43.472;23.936;2023-07-30T05:30:02;7.93;;;0.88;;
41829;SDS011;38614;43.472;23.936;2023-07-30T05:32:50;2.10;;;0.68;;
41829;SDS011;38614;43.472;23.936;2023-07-30T05:35:38;1.10;;;0.70;;
41829;SDS011;38614;43.472;23.936;2023-07-30T05:38:26;2.22;;;0.95;;
41829;SDS011;38614;43.472;23.936;2023-07-30T05:41:17;2.08;;;0.45;;
41829;SDS011;38614;43.472;23.936;2023-07-30T05:44:05;2.00;;;0.57;;
41829;SDS011;38614;43.472;23.936;2023-07-30T05:46:52;0.60;;;0.60;;
41829;SDS011;38614;43.472;23.936;2023-07-30T05:49:45;4.85;;;1.38;;
41829;SDS011;38614;43.472;23.936;2023-07-30T05:52:35;2.05;;;0.93;;
41829;SDS011;38614;43.472;23.936;2023-07-30T05:55:23;1.13;;;0.30;;
41829;SDS011;38614;43.472;23.936;2023-07-30T05:58:10;11.02;;;1.40;;
41829;SDS011;38614;43.472;23.936;2023-07-30T06:00:58;5.22;;;2.03;;
41829;SDS011;38614;43.472;23.936;2023-07-30T06:03:48;1.80;;;1.17;;
41829;SDS011;38614;43.472;23.936;2023-07-30T06:06:36;4.22;;;1.80;;
41829;SDS011;38614;43.472;23.936;2023-07-30T06:09:27;3.20;;;0.95;;
41829;SDS011;38614;43.472;23.936;2023-07-30T06:12:15;3.38;;;1.00;;
41829;SDS011;38614;43.472;23.936;2023-07-30T06:15:05;1.50;;;0.73;;
41829;SDS011;38614;43.472;23.936;2023-07-30T06:18:04;2.55;;;1.35;;
41829;SDS011;38614;43.472;23.936;2023-07-30T06:20:52;2.08;;;0.77;;
41829;SDS011;38614;43.472;23.936;2023-07-30T06:23:41;2.47;;;1.30;;
41829;SDS011;38614;43.472;23.936;2023-07-30T06:26:31;3.45;;;0.70;;
41829;SDS011;38614;43.472;23.936;2023-07-30T06:29:21;1.55;;;0.70;;
41829;SDS011;38614;43.472;23.936;2023-07-30T06:32:11;2.33;;;1.05;;
41829;SDS011;38614;43.472;23.936;2023-07-30T06:34:59;0.95;;;0.52;;
41829;SDS011;38614;43.472;23.936;2023-07-30T06:37:47;3.17;;;0.80;;
41829;SDS011;38614;43.472;23.936;2023-07-30T06:40:35;3.28;;;0.70;;
41829;SDS011;38614;43.472;23.936;2023-07-30T06:43:25;0.47;;;0.35;;
41829;SDS011;38614;43.472;23.936;2023-07-30T06:46:13;6.47;;;0.65;;
41829;SDS011;38614;43.472;23.936;2023-07-30T06:49:01;0.65;;;0.47;;
41829;SDS011;38614;43.472;23.936;2023-07-30T06:51:49;1.08;;;0.45;;
41829;SDS011;38614;43.472;23.936;2023-07-30T06:54:37;3.05;;;0.47;;
41829;SDS011;38614;43.472;23.936;2023-07-30T06:57:26;5.07;;;0.63;;
41829;SDS011;38614;43.472;23.936;2023-07-30T07:00:14;0.60;;;0.40;;
41829;SDS011;38614;43.472;23.936;2023-07-30T07:03:09;2.47;;;0.95;;
41829;SDS011;38614;43.472;23.936;2023-07-30T07:05:57;0.75;;;0.40;;
41829;SDS011;38614;43.472;23.936;2023-07-30T07:08:45;6.55;;;0.50;;
41829;SDS011;38614;43.472;23.936;2023-07-30T07:11:37;0.82;;;0.55;;
41829;SDS011;38614;43.472;23.936;2023-07-30T07:14:29;9.98;;;0.63;;
41829;SDS011;38614;43.472;23.936;2023-07-30T07:17:18;0.90;;;0.25;;
41829;SDS011;38614;43.472;23.936;2023-07-30T07:20:06;1.15;;;0.30;;
41829;SDS011;38614;43.472;23.936;2023-07-30T07:22:57;7.35;;;0.30;;
41829;SDS011;38614;43.472;23.936;2023-07-30T07:25:45;0.55;;;0.40;;
41829;SDS011;38614;43.472;23.936;2023-07-30T07:28:33;0.30;;;0.30;;
41829;SDS011;38614;43.472;23.936;2023-07-30T07:31:22;0.70;;;0.10;;
41829;SDS011;38614;43.472;23.936;2023-07-30T07:34:10;6.57;;;0.40;;
41829;SDS011;38614;43.472;23.936;2023-07-30T07:36:57;3.47;;;0.28;;
41829;SDS011;38614;43.472;23.936;2023-07-30T07:39:48;0.50;;;0.32;;
41829;SDS011;38614;43.472;23.936;2023-07-30T07:42:38;0.40;;;0.17;;
41829;SDS011;38614;43.472;23.936;2023-07-30T07:45:26;8.20;;;0.30;;
41829;SDS011;38614;43.472;23.936;2023-07-30T07:48:14;1.80;;;0.77;;
41829;SDS011;38614;43.472;23.936;2023-07-30T07:51:02;0.98;;;0.10;;
41829;SDS011;38614;43.472;23.936;2023-07-30T07:53:50;5.80;;;0.43;;
41829;SDS011;38614;43.472;23.936;2023-07-30T07:56:37;0.45;;;0.20;;
41829;SDS011;38614;43.472;23.936;2023-07-30T07:59:28;1.75;;;0.32;;
41829;SDS011;38614;43.472;23.936;2023-07-30T08:02:16;0.37;;;0.10;;
41829;SDS011;38614;43.472;23.936;2023-07-30T08:05:04;0.30;;;0.08;;
41829;SDS011;38614;43.472;23.936;2023-07-30T08:07:52;0.45;;;0.32;;
41829;SDS011;38614;43.472;23.936;2023-07-30T08:10:40;1.00;;;0.10;;
41829;SDS011;38614;43.472;23.936;2023-07-30T08:13:34;2.15;;;0.10;;
41829;SDS011;38614;43.472;23.936;2023-07-30T08:16:23;0.40;;;0.15;;
41829;SDS011;38614;43.472;23.936;2023-07-30T08:19:12;0.93;;;0.13;;
41829;SDS011;38614;43.472;23.936;2023-07-30T08:22:00;5.05;;;0.90;;
41829;SDS011;38614;43.472;23.936;2023-07-30T08:24:48;0.30;;;0.10;;
41829;SDS011;38614;43.472;23.936;2023-07-30T08:27:36;0.13;;;0.00;;
41829;SDS011;38614;43.472;23.936;2023-07-30T08:30:23;3.60;;;0.10;;
41829;SDS011;38614;43.472;23.936;2023-07-30T08:33:11;0.20;;;0.00;;
41829;SDS011;38614;43.472;23.936;2023-07-30T08:35:59;0.17;;;0.00;;
41829;SDS011;38614;43.472;23.936;2023-07-30T08:38:47;0.50;;;0.30;;
41829;SDS011;38614;43.472;23.936;2023-07-30T08:41:35;0.20;;;0.10;;
41829;SDS011;38614;43.472;23.936;2023-07-30T08:44:23;0.35;;;0.10;;
41829;SDS011;38614;43.472;23.936;2023-07-30T08:47:12;0.20;;;0.00;;
41829;SDS011;38614;43.472;23.936;2023-07-30T08:50:00;0.40;;;0.10;;
41829;SDS011;38614;43.472;23.936;2023-07-30T08:52:48;0.30;;;0.20;;
41829;SDS011;38614;43.472;23.936;2023-07-30T08:55:37;0.60;;;0.10;;
41829;SDS011;38614;43.472;23.936;2023-07-30T08:58:27;0.28;;;0.10;;
41829;SDS011;38614;43.472;23.936;2023-07-30T09:01:16;0.45;;;0.20;;
41829;SDS011;38614;43.472;23.936;2023-07-30T09:04:06;1.27;;;0.30;;
41829;SDS011;38614;43.472;23.936;2023-07-30T09:06:56;1.80;;;0.10;;
41829;SDS011;38614;43.472;23.936;2023-07-30T09:09:43;0.40;;;0.20;;
41829;SDS011;38614;43.472;23.936;2023-07-30T09:12:32;5.68;;;0.28;;
41829;SDS011;38614;43.472;23.936;2023-07-30T09:15:31;1.40;;;0.30;;
41829;SDS011;38614;43.472;23.936;2023-07-30T09:18:20;2.28;;;0.10;;
41829;SDS011;38614;43.472;23.936;2023-07-30T09:21:09;0.68;;;0.10;;
41829;SDS011;38614;43.472;23.936;2023-07-30T09:24:02;1.20;;;0.10;;
41829;SDS011;38614;43.472;23.936;2023-07-30T09:27:01;0.68;;;0.15;;
41829;SDS011;38614;43.472;23.936;2023-07-30T09:29:50;0.70;;;0.10;;
41829;SDS011;38614;43.472;23.936;2023-07-30T09:32:43;0.60;;;0.10;;
41829;SDS011;38614;43.472;23.936;2023-07-30T09:35:32;0.40;;;0.05;;
41829;SDS011;38614;43.472;23.936;2023-07-30T09:38:22;0.75;;;0.10;;
41829;SDS011;38614;43.472;23.936;2023-07-30T09:41:11;0.57;;;0.10;;
41829;SDS011;38614;43.472;23.936;2023-07-30T09:43:59;1.20;;;0.40;;
41829;SDS011;38614;43.472;23.936;2023-07-30T09:46:48;0.30;;;0.10;;
41829;SDS011;38614;43.472;23.936;2023-07-30T09:49:37;1.20;;;0.30;;
41829;SDS011;38614;43.472;23.936;2023-07-30T09:52:25;1.85;;;1.15;;
41829;SDS011;38614;43.472;23.936;2023-07-30T09:55:15;0.32;;;0.10;;
41829;SDS011;38614;43.472;23.936;2023-07-30T09:58:03;2.22;;;0.20;;
41829;SDS011;38614;43.472;23.936;2023-07-30T10:00:51;0.40;;;0.10;;
41829;SDS011;38614;43.472;23.936;2023-07-30T10:03:40;0.38;;;0.10;;
41829;SDS011;38614;43.472;23.936;2023-07-30T10:06:28;1.83;;;0.22;;
41829;SDS011;38614;43.472;23.936;2023-07-30T10:09:19;0.52;;;0.20;;
41829;SDS011;38614;43.472;23.936;2023-07-30T10:12:11;0.35;;;0.20;;
41829;SDS011;38614;43.472;23.936;2023-07-30T10:15:02;0.28;;;0.10;;
41829;SDS011;38614;43.472;23.936;2023-07-30T10:17:51;0.22;;;0.10;;
41829;SDS011;38614;43.472;23.936;2023-07-30T10:20:39;1.67;;;0.30;;
41829;SDS011;38614;43.472;23.936;2023-07-30T10:23:28;2.50;;;0.55;;
41829;SDS011;38614;43.472;23.936;2023-07-30T10:26:16;0.40;;;0.30;;
41829;SDS011;38614;43.472;23.936;2023-07-30T10:29:18;0.30;;;0.10;;
41829;SDS011;38614;43.472;23.936;2023-07-30T10:32:07;1.15;;;0.28;;
41829;SDS011;38614;43.472;23.936;2023-07-30T10:34:56;1.27;;;0.30;;
41829;SDS011;38614;43.472;23.936;2023-07-30T10:37:45;0.30;;;0.25;;
41829;SDS011;38614;43.472;23.936;2023-07-30T10:40:36;0.82;;;0.20;;
41829;SDS011;38614;43.472;23.936;2023-07-30T10:43:29;1.67;;;0.40;;
41829;SDS011;38614;43.472;23.936;2023-07-30T10:46:26;1.00;;;0.30;;
41829;SDS011;38614;43.472;23.936;2023-07-30T10:49:15;1.58;;;0.45;;
41829;SDS011;38614;43.472;23.936;2023-07-30T10:52:03;0.50;;;0.20;;
41829;SDS011;38614;43.472;23.936;2023-07-30T10:54:59;1.45;;;0.10;;
41829;SDS011;38614;43.472;23.936;2023-07-30T10:57:48;1.70;;;0.20;;
41829;SDS011;38614;43.472;23.936;2023-07-30T11:00:37;0.35;;;0.20;;
41829;SDS011;38614;43.472;23.936;2023-07-30T11:03:25;0.40;;;0.13;;
41829;SDS011;38614;43.472;23.936;2023-07-30T11:06:14;1.85;;;0.20;;
41829;SDS011;38614;43.472;23.936;2023-07-30T11:09:17;0.77;;;0.20;;
41829;SDS011;38614;43.472;23.936;2023-07-30T11:12:08;0.88;;;0.80;;
41829;SDS011;38614;43.472;23.936;2023-07-30T11:15:01;7.07;;;1.95;;
41829;SDS011;38614;43.472;23.936;2023-07-30T11:17:53;1.95;;;0.40;;
41829;SDS011;38614;43.472;23.936;2023-07-30T11:23:28;1.30;;;0.35;;
41829;SDS011;38614;43.472;23.936;2023-07-30T11:26:17;1.23;;;0.38;;
41829;SDS011;38614;43.472;23.936;2023-07-30T11:29:15;2.57;;;0.80;;
41829;SDS011;38614;43.472;23.936;2023-07-30T11:32:04;2.88;;;0.65;;
41829;SDS011;38614;43.472;23.936;2023-07-30T11:34:55;0.47;;;0.28;;
41829;SDS011;38614;43.472;23.936;2023-07-30T11:37:45;0.93;;;0.40;;
41829;SDS011;38614;43.472;23.936;2023-07-30T11:40:33;1.02;;;0.28;;
41829;SDS011;38614;43.472;23.936;2023-07-30T11:43:21;3.65;;;0.57;;
41829;SDS011;38614;43.472;23.936;2023-07-30T11:46:13;5.10;;;0.52;;
41829;SDS011;38614;43.472;23.936;2023-07-30T11:52:04;0.90;;;0.40;;
41829;SDS011;38614;43.472;23.936;2023-07-30T11:55:04;0.82;;;0.65;;
41829;SDS011;38614;43.472;23.936;2023-07-30T11:57:55;1.00;;;0.30;;
41829;SDS011;38614;43.472;23.936;2023-07-30T12:00:47;0.40;;;0.40;;
41829;SDS011;38614;43.472;23.936;2023-07-30T12:03:37;0.93;;;0.20;;
41829;SDS011;38614;43.472;23.936;2023-07-30T12:06:41;5.30;;;0.25;;
41829;SDS011;38614;43.472;23.936;2023-07-30T12:09:34;0.90;;;0.30;;
41829;SDS011;38614;43.472;23.936;2023-07-30T12:12:25;1.75;;;1.05;;
41829;SDS011;38614;43.472;23.936;2023-07-30T12:15:14;0.32;;;0.30;;
41829;SDS011;38614;43.472;23.936;2023-07-30T12:18:02;3.70;;;1.00;;
41829;SDS011;38614;43.472;23.936;2023-07-30T12:20:50;1.05;;;0.30;;
41829;SDS011;38614;43.472;23.936;2023-07-30T12:23:38;1.05;;;0.65;;
41829;SDS011;38614;43.472;23.936;2023-07-30T12:26:26;4.13;;;0.30;;
41829;SDS011;38614;43.472;23.936;2023-07-30T12:29:14;0.95;;;0.32;;
41829;SDS011;38614;43.472;23.936;2023-07-30T12:32:02;0.30;;;0.25;;
41829;SDS011;38614;43.472;23.936;2023-07-30T12:34:50;2.67;;;0.57;;
41829;SDS011;38614;43.472;23.936;2023-07-30T12:37:38;0.65;;;0.45;;
41829;SDS011;38614;43.472;23.936;2023-07-30T12:40:26;1.50;;;0.60;;
41829;SDS011;38614;43.472;23.936;2023-07-30T12:43:16;2.30;;;0.45;;
41829;SDS011;38614;43.472;23.936;2023-07-30T12:46:06;1.00;;;0.50;;
41829;SDS011;38614;43.472;23.936;2023-07-30T12:48:54;2.17;;;0.40;;
41829;SDS011;38614;43.472;23.936;2023-07-30T12:51:42;0.20;;;0.10;;
41829;SDS011;38614;43.472;23.936;2023-07-30T12:54:30;1.23;;;0.20;;
41829;SDS011;38614;43.472;23.936;2023-07-30T12:57:17;0.88;;;0.35;;
41829;SDS011;38614;43.472;23.936;2023-07-30T13:00:05;1.75;;;0.70;;
41829;SDS011;38614;43.472;23.936;2023-07-30T13:02:53;0.65;;;0.40;;
41829;SDS011;38614;43.472;23.936;2023-07-30T13:05:45;6.03;;;0.70;;
41829;SDS011;38614;43.472;23.936;2023-07-30T13:09:09;0.98;;;0.52;;
41829;SDS011;38614;43.472;23.936;2023-07-30T13:11:57;2.45;;;0.40;;
41829;SDS011;38614;43.472;23.936;2023-07-30T13:14:45;0.50;;;0.20;;
41829;SDS011;38614;43.472;23.936;2023-07-30T13:17:33;2.63;;;0.57;;
41829;SDS011;38614;43.472;23.936;2023-07-30T13:20:21;2.05;;;0.77;;
41829;SDS011;38614;43.472;23.936;2023-07-30T13:23:10;3.10;;;0.47;;
41829;SDS011;38614;43.472;23.936;2023-07-30T13:25:57;1.20;;;0.60;;
41829;SDS011;38614;43.472;23.936;2023-07-30T13:28:45;2.13;;;0.82;;
41829;SDS011;38614;43.472;23.936;2023-07-30T13:31:36;1.20;;;0.30;;
41829;SDS011;38614;43.472;23.936;2023-07-30T13:34:29;1.10;;;0.47;;
41829;SDS011;38614;43.472;23.936;2023-07-30T13:37:18;1.25;;;0.40;;
41829;SDS011;38614;43.472;23.936;2023-07-30T13:40:06;0.60;;;0.38;;
41829;SDS011;38614;43.472;23.936;2023-07-30T13:42:54;0.52;;;0.40;;
41829;SDS011;38614;43.472;23.936;2023-07-30T13:45:42;0.47;;;0.47;;
41829;SDS011;38614;43.472;23.936;2023-07-30T13:48:33;3.22;;;0.55;;
41829;SDS011;38614;43.472;23.936;2023-07-30T13:51:25;0.20;;;0.20;;
41829;SDS011;38614;43.472;23.936;2023-07-30T13:54:19;0.93;;;0.50;;
41829;SDS011;38614;43.472;23.936;2023-07-30T13:57:06;0.65;;;0.43;;
41829;SDS011;38614;43.472;23.936;2023-07-30T13:59:54;3.05;;;0.63;;
41829;SDS011;38614;43.472;23.936;2023-07-30T14:02:42;0.50;;;0.50;;
41829;SDS011;38614;43.472;23.936;2023-07-30T14:05:31;3.03;;;0.30;;
41829;SDS011;38614;43.472;23.936;2023-07-30T14:08:18;0.52;;;0.50;;
41829;SDS011;38614;43.472;23.936;2023-07-30T14:11:08;0.38;;;0.38;;
41829;SDS011;38614;43.472;23.936;2023-07-30T14:13:57;2.10;;;0.60;;
41829;SDS011;38614;43.472;23.936;2023-07-30T14:16:45;2.42;;;0.50;;
41829;SDS011;38614;43.472;23.936;2023-07-30T14:19:34;5.45;;;0.35;;
41829;SDS011;38614;43.472;23.936;2023-07-30T14:22:21;2.92;;;0.88;;
41829;SDS011;38614;43.472;23.936;2023-07-30T14:25:09;7.72;;;0.70;;
41829;SDS011;38614;43.472;23.936;2023-07-30T14:27:57;0.85;;;0.20;;
41829;SDS011;38614;43.472;23.936;2023-07-30T14:30:48;2.28;;;0.43;;
41829;SDS011;38614;43.472;23.936;2023-07-30T14:33:36;0.52;;;0.20;;
41829;SDS011;38614;43.472;23.936;2023-07-30T14:36:24;1.85;;;0.77;;
41829;SDS011;38614;43.472;23.936;2023-07-30T14:39:11;0.80;;;0.57;;
41829;SDS011;38614;43.472;23.936;2023-07-30T14:41:59;4.38;;;0.30;;
41829;SDS011;38614;43.472;23.936;2023-07-30T14:44:47;6.97;;;0.45;;
41829;SDS011;38614;43.472;23.936;2023-07-30T14:47:35;4.22;;;0.85;;
41829;SDS011;38614;43.472;23.936;2023-07-30T14:50:23;0.40;;;0.32;;
41829;SDS011;38614;43.472;23.936;2023-07-30T14:53:11;0.73;;;0.50;;
41829;SDS011;38614;43.472;23.936;2023-07-30T14:55:58;1.20;;;0.52;;
41829;SDS011;38614;43.472;23.936;2023-07-30T14:58:48;3.05;;;0.57;;
41829;SDS011;38614;43.472;23.936;2023-07-30T15:01:36;1.83;;;0.40;;
41829;SDS011;38614;43.472;23.936;2023-07-30T15:04:24;0.77;;;0.60;;
41829;SDS011;38614;43.472;23.936;2023-07-30T15:07:12;2.10;;;0.57;;
41829;SDS011;38614;43.472;23.936;2023-07-30T15:10:00;1.70;;;0.45;;
41829;SDS011;38614;43.472;23.936;2023-07-30T15:12:48;2.30;;;0.75;;
41829;SDS011;38614;43.472;23.936;2023-07-30T15:15:36;0.40;;;0.38;;
41829;SDS011;38614;43.472;23.936;2023-07-30T15:18:23;1.25;;;0.30;;
41829;SDS011;38614;43.472;23.936;2023-07-30T15:21:12;1.38;;;0.40;;
41829;SDS011;38614;43.472;23.936;2023-07-30T15:24:00;1.40;;;0.40;;
41829;SDS011;38614;43.472;23.936;2023-07-30T15:26:48;1.30;;;0.43;;
41829;SDS011;38614;43.472;23.936;2023-07-30T15:29:36;0.88;;;0.52;;
41829;SDS011;38614;43.472;23.936;2023-07-30T15:32:23;0.82;;;0.20;;
41829;SDS011;38614;43.472;23.936;2023-07-30T15:35:14;0.77;;;0.40;;
41829;SDS011;38614;43.472;23.936;2023-07-30T15:38:05;1.42;;;0.50;;
41829;SDS011;38614;43.472;23.936;2023-07-30T15:40:54;0.43;;;0.32;;
41829;SDS011;38614;43.472;23.936;2023-07-30T15:43:42;0.77;;;0.30;;
41829;SDS011;38614;43.472;23.936;2023-07-30T15:46:30;1.50;;;0.13;;
41829;SDS011;38614;43.472;23.936;2023-07-30T15:49:18;0.63;;;0.40;;
41829;SDS011;38614;43.472;23.936;2023-07-30T15:52:06;0.40;;;0.30;;
41829;SDS011;38614;43.472;23.936;2023-07-30T15:54:54;1.10;;;0.57;;
41829;SDS011;38614;43.472;23.936;2023-07-30T15:57:42;0.80;;;0.50;;
41829;SDS011;38614;43.472;23.936;2023-07-30T16:00:31;1.65;;;0.40;;
41829;SDS011;38614;43.472;23.936;2023-07-30T16:03:18;0.75;;;0.50;;
41829;SDS011;38614;43.472;23.936;2023-07-30T16:06:07;3.63;;;0.68;;
41829;SDS011;38614;43.472;23.936;2023-07-30T16:08:55;0.60;;;0.60;;
41829;SDS011;38614;43.472;23.936;2023-07-30T16:11:43;0.50;;;0.50;;
41829;SDS011;38614;43.472;23.936;2023-07-30T16:14:32;0.70;;;0.68;;
41829;SDS011;38614;43.472;23.936;2023-07-30T16:17:20;0.80;;;0.47;;
41829;SDS011;38614;43.472;23.936;2023-07-30T16:20:07;0.77;;;0.47;;
41829;SDS011;38614;43.472;23.936;2023-07-30T16:23:02;0.57;;;0.57;;
41829;SDS011;38614;43.472;23.936;2023-07-30T16:25:49;2.30;;;0.70;;
41829;SDS011;38614;43.472;23.936;2023-07-30T16:28:37;1.60;;;0.70;;
41829;SDS011;38614;43.472;23.936;2023-07-30T16:31:28;1.13;;;0.40;;
41829;SDS011;38614;43.472;23.936;2023-07-30T16:34:36;4.50;;;0.47;;
41829;SDS011;38614;43.472;23.936;2023-07-30T16:37:24;1.35;;;0.63;;
41829;SDS011;38614;43.472;23.936;2023-07-30T16:40:12;0.85;;;0.45;;
41829;SDS011;38614;43.472;23.936;2023-07-30T16:43:01;0.28;;;0.28;;
41829;SDS011;38614;43.472;23.936;2023-07-30T16:45:53;1.92;;;0.85;;
41829;SDS011;38614;43.472;23.936;2023-07-30T16:48:45;3.83;;;0.35;;